Time;durP1;ratioP1;P1;durP2;ratioP2;P2;SDS_P1;SDS_P2;PMS_P1;PMS_P2;Temp;Humidity;BMP_temperature;BMP_pressure;BME280_temperature;BME280_humidity;BME280_pressure;Samples;Min_cycle;Max_cycle;Signal;HPM_P1;HPM_P2
2021/05/19 00:02:25;;;;;;;5.10;4.60;;;12.60;99.90;;;;;;4992415;28;20245;-76
2021/05/19 00:04:51;;;;;;;5.80;4.33;;;12.60;99.90;;;;;;4975421;28;20186;-76
2021/05/19 00:07:16;;;;;;;7.80;4.70;;;12.60;99.90;;;;;;4992058;28;20187;-76
2021/05/19 00:09:42;;;;;;;5.63;4.67;;;12.60;99.90;;;;;;4992198;28;20549;-76
2021/05/19 00:12:08;;;;;;;5.70;5.20;;;12.60;99.90;;;;;;4992248;28;20170;-76
2021/05/19 00:14:34;;;;;;;5.90;4.90;;;12.70;99.90;;;;;;4992461;28;20166;-76
2021/05/19 00:16:59;;;;;;;5.47;4.53;;;12.60;99.90;;;;;;4991777;28;20618;-75
2021/05/19 00:19:25;;;;;;;9.43;4.60;;;12.60;99.90;;;;;;4992349;28;20178;-76
2021/05/19 00:21:52;;;;;;;6.53;4.90;;;12.60;99.90;;;;;;4992463;28;20178;-76
2021/05/19 00:24:18;;;;;;;5.72;4.50;;;12.60;99.90;;;;;;4992131;28;20548;-75
2021/05/19 00:26:43;;;;;;;7.20;5.15;;;12.60;99.90;;;;;;4991017;28;20229;-76
2021/05/19 00:29:12;;;;;;;5.57;5.07;;;12.60;99.90;;;;;;4958621;28;20206;-75
2021/05/19 00:31:42;;;;;;;7.65;5.07;;;12.60;99.90;;;;;;4974682;28;20305;-76
2021/05/19 00:34:09;;;;;;;6.18;5.07;;;12.60;99.90;;;;;;4974709;28;20171;-76
2021/05/19 00:36:35;;;;;;;5.35;4.85;;;12.60;99.90;;;;;;4991674;28;20195;-76
2021/05/19 00:39:01;;;;;;;6.47;5.23;;;12.60;99.90;;;;;;4974627;28;20306;-76
2021/05/19 00:41:26;;;;;;;7.80;5.77;;;12.60;99.90;;;;;;4974805;28;20592;-76
2021/05/19 00:44:03;;;;;;;6.00;5.40;;;12.60;99.90;;;;;;4958529;28;20186;-76
2021/05/19 00:46:28;;;;;;;6.15;5.60;;;12.60;99.90;;;;;;4991674;28;20202;-76
2021/05/19 00:48:54;;;;;;;5.90;5.30;;;12.60;99.90;;;;;;4974457;28;20219;-76
2021/05/19 00:51:20;;;;;;;7.20;5.45;;;12.50;99.90;;;;;;4974626;28;20167;-76
2021/05/19 00:53:46;;;;;;;5.77;4.73;;;12.50;99.90;;;;;;4958380;28;20167;-76
2021/05/19 00:56:12;;;;;;;5.40;4.67;;;12.50;99.90;;;;;;4974369;28;20199;-76
2021/05/19 00:58:39;;;;;;;10.35;6.63;;;12.50;99.90;;;;;;4974454;28;20174;-76
2021/05/19 01:01:04;;;;;;;6.35;5.85;;;12.50;99.90;;;;;;4974429;28;20171;-76
2021/05/19 01:03:45;;;;;;;5.25;4.75;;;12.50;99.90;;;;;;4958485;28;20171;-76
2021/05/19 01:06:26;;;;;;;9.90;4.72;;;12.50;99.90;;;;;;4974073;28;20194;-76
2021/05/19 01:11:38;;;;;;;4.80;4.40;;;12.40;99.90;;;;;;4991792;28;20163;-77
2021/05/19 01:14:04;;;;;;;4.47;3.90;;;12.40;99.90;;;;;;4991886;28;20189;-76
2021/05/19 01:16:29;;;;;;;5.10;4.70;;;12.40;99.90;;;;;;4991179;28;20206;-76
2021/05/19 01:18:55;;;;;;;4.70;4.30;;;12.40;99.90;;;;;;4974432;28;20186;-76
2021/05/19 01:21:23;;;;;;;7.67;5.10;;;12.40;99.90;;;;;;4991719;28;20969;-76
2021/05/19 01:23:49;;;;;;;4.50;4.13;;;12.30;99.90;;;;;;4974488;28;20542;-76
2021/05/19 01:26:14;;;;;;;4.73;4.33;;;12.30;99.90;;;;;;4991567;28;20199;-76
2021/05/19 01:28:42;;;;;;;4.83;4.23;;;12.30;99.90;;;;;;4973998;28;20699;-76
2021/05/19 01:31:10;;;;;;;5.47;4.97;;;12.30;99.90;;;;;;4974699;28;20163;-76
2021/05/19 01:33:38;;;;;;;4.78;4.28;;;12.30;99.90;;;;;;4974475;28;20588;-76
2021/05/19 01:36:04;;;;;;;5.78;5.15;;;12.30;99.90;;;;;;4982987;28;20210;-76
2021/05/19 01:38:32;;;;;;;6.28;5.03;;;12.30;99.90;;;;;;4967018;28;20217;-76
2021/05/19 01:40:57;;;;;;;4.68;4.30;;;12.30;99.90;;;;;;4950536;28;20519;-76
2021/05/19 01:43:32;;;;;;;5.17;4.40;;;12.30;99.90;;;;;;4976858;28;20190;-76
2021/05/19 01:46:07;;;;;;;7.15;4.60;;;12.30;99.90;;;;;;4977780;28;20266;-76
2021/05/19 01:48:35;;;;;;;4.47;4.18;;;12.40;99.90;;;;;;4994729;28;20225;-76
2021/05/19 01:51:02;;;;;;;4.85;4.47;;;12.50;99.90;;;;;;4995157;28;20190;-76
2021/05/19 01:53:28;;;;;;;4.63;4.22;;;12.50;99.90;;;;;;4995099;28;20175;-76
2021/05/19 01:55:56;;;;;;;5.20;4.40;;;12.50;99.90;;;;;;4977675;28;20279;-76
2021/05/19 01:58:22;;;;;;;5.25;4.32;;;12.60;99.90;;;;;;4977259;28;20175;-76
2021/05/19 02:00:49;;;;;;;4.40;4.03;;;12.70;99.90;;;;;;4977511;28;20207;-76
2021/05/19 02:03:23;;;;;;;5.53;5.03;;;12.70;99.90;;;;;;4977454;28;20237;-77
2021/05/19 02:05:58;;;;;;;4.65;4.20;;;12.80;99.90;;;;;;4977871;28;20277;-76
2021/05/19 02:08:27;;;;;;;4.97;4.57;;;12.80;99.90;;;;;;4994523;28;20245;-76
2021/05/19 02:10:53;;;;;;;6.10;4.78;;;12.90;99.90;;;;;;4977304;28;20688;-76
2021/05/19 02:13:19;;;;;;;7.10;4.93;;;12.90;99.90;;;;;;4977576;28;20182;-76
2021/05/19 02:15:47;;;;;;;4.57;4.20;;;13.00;99.90;;;;;;4977080;28;20266;-76
2021/05/19 02:18:16;;;;;;;7.03;4.78;;;13.00;99.90;;;;;;4961230;28;20202;-76
2021/05/19 02:20:42;;;;;;;5.83;5.20;;;13.10;99.90;;;;;;4977247;28;20175;-76
2021/05/19 02:23:08;;;;;;;5.45;5.05;;;13.10;99.90;;;;;;4977251;28;20179;-76
2021/05/19 02:25:35;;;;;;;4.55;4.22;;;13.10;99.90;;;;;;4994381;28;20680;-76
2021/05/19 02:28:02;;;;;;;5.30;4.80;;;13.20;99.90;;;;;;4976701;28;20178;-76
2021/05/19 02:30:36;;;;;;;4.95;4.55;;;13.20;99.90;;;;;;4977006;28;20199;-76
2021/05/19 02:33:11;;;;;;;5.55;5.05;;;13.20;99.90;;;;;;4977039;28;20174;-76
2021/05/19 02:35:37;;;;;;;5.95;5.43;;;13.20;99.90;;;;;;4994206;28;20182;-76
2021/05/19 02:38:04;;;;;;;5.90;5.40;;;13.20;99.90;;;;;;4993916;28;20262;-76
2021/05/19 02:40:31;;;;;;;6.18;5.68;;;13.20;99.90;;;;;;4994123;28;20316;-76
2021/05/19 02:42:58;;;;;;;5.80;5.32;;;13.30;99.90;;;;;;4960746;28;20208;-76
2021/05/19 02:45:28;;;;;;;6.45;5.85;;;13.30;99.90;;;;;;4976858;28;20257;-76
2021/05/19 02:47:54;;;;;;;6.27;5.77;;;13.30;99.90;;;;;;4983642;23;20255;-78
2021/05/19 02:50:20;;;;;;;5.53;5.10;;;13.30;99.90;;;;;;4985570;28;20182;-78
2021/05/19 02:52:46;;;;;;;10.27;5.13;;;13.30;99.90;;;;;;4954591;28;20179;-78
2021/05/19 02:55:12;;;;;;;6.73;6.13;;;13.30;99.90;;;;;;4994325;28;20183;-79
2021/05/19 02:57:38;;;;;;;4.95;4.55;;;13.30;99.90;;;;;;4976306;28;20551;-78
2021/05/19 03:00:06;;;;;;;6.93;6.22;;;13.40;99.90;;;;;;4976951;28;20167;-79
2021/05/19 03:02:32;;;;;;;7.30;5.78;;;13.40;99.90;;;;;;4993954;28;20226;-79
2021/05/19 03:04:58;;;;;;;8.35;6.32;;;13.40;99.90;;;;;;4994305;28;20238;-79
2021/05/19 03:07:23;;;;;;;7.10;6.50;;;13.40;99.90;;;;;;4998376;28;20217;-79
2021/05/19 03:09:49;;;;;;;7.80;7.17;;;13.40;99.90;;;;;;4976470;28;20245;-79
2021/05/19 03:12:15;;;;;;;7.63;6.93;;;13.40;99.90;;;;;;4993915;28;20226;-79
2021/05/19 03:14:41;;;;;;;6.90;6.20;;;13.40;99.90;;;;;;4976723;28;20159;-78
2021/05/19 03:17:06;;;;;;;8.20;7.10;;;13.40;99.90;;;;;;4976171;28;20678;-79
2021/05/19 03:19:32;;;;;;;7.13;6.53;;;13.40;99.90;;;;;;4993985;28;20179;-78
2021/05/19 03:21:58;;;;;;;6.80;6.20;;;13.40;99.90;;;;;;4994098;28;20537;-78
2021/05/19 03:24:24;;;;;;;7.90;7.30;;;13.40;99.90;;;;;;4977171;28;20178;-78
2021/05/19 03:26:50;;;;;;;8.73;7.90;;;13.50;99.90;;;;;;4994525;28;20167;-79
2021/05/19 03:29:16;;;;;;;8.07;7.40;;;13.50;99.90;;;;;;4995803;28;20195;-79
2021/05/19 03:31:42;;;;;;;8.17;7.13;;;13.50;99.90;;;;;;4966447;28;20198;-79
2021/05/19 03:34:08;;;;;;;7.33;6.63;;;13.50;99.90;;;;;;4966922;28;20578;-79
2021/05/19 03:36:33;;;;;;;8.07;7.35;;;13.50;99.90;;;;;;4983276;28;20182;-78
2021/05/19 03:38:59;;;;;;;7.33;6.40;;;13.50;99.90;;;;;;5004781;28;20191;-79
2021/05/19 03:41:25;;;;;;;7.33;6.77;;;13.40;99.90;;;;;;5007713;28;20185;-79
2021/05/19 03:43:51;;;;;;;9.30;8.40;;;13.50;99.90;;;;;;4993572;28;20613;-79
2021/05/19 03:46:18;;;;;;;10.13;7.33;;;13.50;99.90;;;;;;5007304;28;20175;-79
2021/05/19 03:48:44;;;;;;;7.70;7.00;;;13.50;99.90;;;;;;4997485;28;20226;-80
2021/05/19 03:51:10;;;;;;;8.30;7.07;;;13.50;99.90;;;;;;5016546;28;20179;-79
2021/05/19 03:53:36;;;;;;;7.35;6.68;;;13.50;99.90;;;;;;4992913;28;20167;-80
2021/05/19 03:56:03;;;;;;;9.03;7.83;;;13.50;99.90;;;;;;5009050;28;20198;-80
2021/05/19 03:58:28;;;;;;;8.35;7.55;;;13.50;99.90;;;;;;4997074;28;20599;-79
2021/05/19 04:00:54;;;;;;;6.67;6.07;;;13.50;99.90;;;;;;4965330;28;20171;-79
2021/05/19 04:03:21;;;;;;;7.63;6.93;;;13.50;99.90;;;;;;4981012;28;20167;-79
2021/05/19 04:05:46;;;;;;;7.55;6.85;;;13.50;99.90;;;;;;4985474;28;20177;-79
2021/05/19 04:08:12;;;;;;;6.40;5.90;;;13.60;99.90;;;;;;4983588;28;20187;-79
2021/05/19 04:10:38;;;;;;;7.53;6.93;;;13.60;99.90;;;;;;4956755;28;20186;-79
2021/05/19 04:13:05;;;;;;;6.90;5.87;;;13.50;99.90;;;;;;4956237;28;20761;-79
2021/05/19 04:15:33;;;;;;;7.00;6.40;;;13.50;99.90;;;;;;4973520;28;20179;-80
2021/05/19 04:17:59;;;;;;;6.90;6.30;;;13.60;99.90;;;;;;4973341;28;20375;-79
2021/05/19 04:20:26;;;;;;;6.63;6.00;;;13.60;99.90;;;;;;4962515;28;20233;-80
2021/05/19 04:22:51;;;;;;;5.70;5.05;;;13.60;99.90;;;;;;4973580;28;20610;-79
2021/05/19 04:25:17;;;;;;;6.53;5.60;;;13.60;99.90;;;;;;4955790;28;20195;-79
2021/05/19 04:27:43;;;;;;;6.90;5.57;;;13.60;99.90;;;;;;4972792;28;20223;-79
2021/05/19 04:30:10;;;;;;;6.83;6.23;;;13.60;99.90;;;;;;4973082;28;20258;-79
2021/05/19 04:32:36;;;;;;;6.88;6.35;;;13.60;99.90;;;;;;4956068;28;20563;-79
2021/05/19 04:35:05;;;;;;;5.82;5.38;;;13.60;99.90;;;;;;4955936;28;20195;-79
2021/05/19 04:37:30;;;;;;;4.93;4.50;;;13.60;99.90;;;;;;4955415;28;20231;-79
2021/05/19 04:39:56;;;;;;;5.83;5.13;;;13.60;99.90;;;;;;4955769;28;20276;-79
2021/05/19 04:42:22;;;;;;;5.70;5.10;;;13.70;99.90;;;;;;4973004;28;20176;-79
2021/05/19 04:44:48;;;;;;;4.77;4.30;;;13.70;99.90;;;;;;4955484;28;20517;-79
2021/05/19 04:47:13;;;;;;;5.43;4.93;;;13.70;99.90;;;;;;4955328;28;20214;-79
2021/05/19 04:49:39;;;;;;;5.17;4.60;;;13.70;99.90;;;;;;4955829;28;20203;-79
2021/05/19 04:52:05;;;;;;;5.90;5.23;;;13.80;99.90;;;;;;4972913;28;20183;-79
2021/05/19 04:54:31;;;;;;;5.43;4.83;;;13.80;99.90;;;;;;4972979;28;20172;-80
2021/05/19 04:56:56;;;;;;;4.70;4.30;;;13.90;99.90;;;;;;4957700;28;20587;-80
2021/05/19 04:59:22;;;;;;;4.47;4.17;;;13.90;99.90;;;;;;4973916;28;20945;-80
2021/05/19 05:01:51;;;;;;;5.33;4.37;;;13.90;99.90;;;;;;4972876;28;20203;-80
2021/05/19 05:04:17;;;;;;;5.40;4.40;;;14.00;99.90;;;;;;4973003;28;20223;-80
2021/05/19 05:06:43;;;;;;;4.93;4.13;;;14.00;99.90;;;;;;4955066;28;20614;-79
2021/05/19 05:09:08;;;;;;;5.32;4.35;;;14.10;99.90;;;;;;4955539;28;20246;-79
2021/05/19 05:11:34;;;;;;;4.30;4.00;;;14.10;99.90;;;;;;4972662;28;20648;-79
2021/05/19 05:14:00;;;;;;;4.00;3.53;;;14.20;99.90;;;;;;4975515;28;20247;-79
2021/05/19 05:16:26;;;;;;;5.87;4.00;;;14.30;99.90;;;;;;4942964;28;20728;-79
2021/05/19 05:18:52;;;;;;;7.10;3.87;;;14.50;99.90;;;;;;4943175;28;20602;-79
2021/05/19 05:21:18;;;;;;;5.67;3.97;;;14.60;99.90;;;;;;4976244;28;20175;-78
2021/05/19 05:23:43;;;;;;;3.67;3.27;;;14.80;99.90;;;;;;4976353;28;20275;-80
2021/05/19 05:26:09;;;;;;;4.67;3.07;;;15.10;99.90;;;;;;4959117;28;20622;-80
2021/05/19 05:28:35;;;;;;;4.80;3.73;;;15.30;99.90;;;;;;4958326;28;20208;-80
2021/05/19 05:31:00;;;;;;;3.73;2.80;;;15.40;99.90;;;;;;4976489;28;20539;-78
2021/05/19 05:33:26;;;;;;;5.17;3.63;;;15.50;99.90;;;;;;4959259;28;20624;-79
2021/05/19 05:35:52;;;;;;;5.23;3.53;;;15.50;99.90;;;;;;4962584;28;20653;-78
2021/05/19 05:38:18;;;;;;;4.37;3.23;;;15.60;99.90;;;;;;4975718;28;20191;-78
2021/05/19 05:40:44;;;;;;;4.50;2.97;;;15.60;99.90;;;;;;4976117;28;20567;-78
2021/05/19 05:43:10;;;;;;;5.00;4.07;;;15.60;99.90;;;;;;4975984;28;20715;-78
2021/05/19 05:45:36;;;;;;;4.57;3.10;;;15.80;99.90;;;;;;4958657;28;20603;-77
2021/05/19 05:48:02;;;;;;;5.40;3.20;;;16.10;99.90;;;;;;4958100;28;20211;-78
2021/05/19 05:50:29;;;;;;;4.60;3.10;;;16.30;99.90;;;;;;4927550;28;20689;-77
2021/05/19 05:52:55;;;;;;;3.80;2.60;;;16.40;99.90;;;;;;4975999;28;20641;-77
2021/05/19 05:55:21;;;;;;;7.03;3.93;;;16.60;99.90;;;;;;4942430;28;20590;-78
2021/05/19 05:57:48;;;;;;;7.50;2.77;;;16.60;99.90;;;;;;4958036;28;20191;-79
2021/05/19 06:00:15;;;;;;;5.73;3.10;;;16.70;99.90;;;;;;4975722;28;20187;-79
2021/05/19 06:02:42;;;;;;;6.77;3.00;;;16.80;99.90;;;;;;4958616;28;20694;-79
2021/05/19 06:05:10;;;;;;;4.93;2.67;;;17.20;99.90;;;;;;4958508;28;20638;-79
2021/05/19 06:07:36;;;;;;;4.80;3.10;;;17.50;99.90;;;;;;4957933;28;20999;-79
2021/05/19 06:10:03;;;;;;;3.87;2.87;;;17.80;99.90;;;;;;4975706;28;20610;-79
2021/05/19 06:12:29;;;;;;;6.27;3.10;;;18.00;99.90;;;;;;4980612;28;20563;-79
2021/05/19 06:14:54;;;;;;;6.70;2.13;;;18.10;99.90;;;;;;4975208;28;20622;-79
2021/05/19 06:17:20;;;;;;;4.20;2.40;;;18.10;99.90;;;;;;4957744;28;20286;-78
2021/05/19 06:19:46;;;;;;;5.07;2.20;;;18.20;99.90;;;;;;4957990;28;20759;-79
2021/05/19 06:22:12;;;;;;;6.60;2.57;;;18.30;99.90;;;;;;4975204;28;20174;-79
2021/05/19 06:24:37;;;;;;;6.03;2.60;;;18.60;99.90;;;;;;4956817;28;20179;-80
2021/05/19 06:27:04;;;;;;;7.27;2.63;;;19.00;99.90;;;;;;4958284;28;20203;-79
2021/05/19 06:29:30;;;;;;;4.57;2.10;;;19.50;99.90;;;;;;4977062;28;20664;-81
2021/05/19 06:31:56;;;;;;;3.83;1.70;;;20.30;99.90;;;;;;4961894;28;20559;-80
2021/05/19 06:34:23;;;;;;;3.43;1.97;;;21.10;99.90;;;;;;4976567;28;20710;-80
2021/05/19 06:36:50;;;;;;;3.43;1.60;;;21.90;99.90;;;;;;4976748;28;20622;-80
2021/05/19 06:39:19;;;;;;;4.60;1.30;;;22.60;99.90;;;;;;4958371;28;20266;-79
2021/05/19 06:41:48;;;;;;;4.20;1.60;;;23.40;99.90;;;;;;4975241;28;20563;-79
2021/05/19 06:44:15;;;;;;;3.50;1.10;;;24.40;99.90;;;;;;4975137;28;20978;-79
2021/05/19 06:46:41;;;;;;;4.43;1.27;;;25.40;99.90;;;;;;4975153;28;20575;-79
2021/05/19 06:49:07;;;;;;;2.77;0.97;;;26.40;99.90;;;;;;4980432;28;20988;-78
2021/05/19 06:51:34;;;;;;;2.93;1.20;;;27.30;99.90;;;;;;4974642;28;20573;-79
2021/05/19 06:54:00;;;;;;;2.20;1.00;;;27.90;99.90;;;;;;4974982;28;20606;-80
2021/05/19 06:56:27;;;;;;;3.47;1.10;;;28.40;99.90;;;;;;4974775;28;20603;-81
2021/05/19 06:58:54;;;;;;;3.87;1.00;;;28.80;98.80;;;;;;4978138;28;20211;-81
2021/05/19 07:01:20;;;;;;;2.53;0.80;;;29.30;98.10;;;;;;4958266;28;20602;-82
2021/05/19 07:03:48;;;;;;;2.83;0.93;;;29.80;96.90;;;;;;4958027;28;20575;-81
2021/05/19 07:06:18;;;;;;;4.80;1.30;;;30.40;95.50;;;;;;4958724;28;20920;-81
2021/05/19 07:08:44;;;;;;;3.90;1.30;;;30.90;94.00;;;;;;4975532;28;20636;-82
2021/05/19 07:11:10;;;;;;;3.13;0.97;;;31.40;93.10;;;;;;4978182;28;20573;-82
2021/05/19 07:13:36;;;;;;;3.50;1.20;;;31.90;91.70;;;;;;4977375;28;20174;-82
2021/05/19 07:16:02;;;;;;;2.80;1.00;;;32.20;89.50;;;;;;4977363;28;20177;-81
2021/05/19 07:18:28;;;;;;;4.13;0.77;;;32.30;85.30;;;;;;4976408;28;20604;-82
2021/05/19 07:20:54;;;;;;;3.50;1.20;;;32.20;81.60;;;;;;4946804;28;20634;-83
2021/05/19 07:23:20;;;;;;;1.97;0.90;;;32.10;78.20;;;;;;4977858;28;20582;-81
2021/05/19 07:25:47;;;;;;;2.33;0.80;;;31.70;75.50;;;;;;4979994;28;21238;-81
2021/05/19 07:28:13;;;;;;;2.93;0.80;;;31.60;74.50;;;;;;4967865;28;20955;-81
2021/05/19 07:30:42;;;;;;;3.20;1.00;;;31.60;74.40;;;;;;4978665;28;20590;-81
2021/05/19 07:33:10;;;;;;;4.60;1.00;;;31.70;73.10;;;;;;4969540;28;20674;-79
2021/05/19 07:35:37;;;;;;;1.77;0.80;;;31.80;72.90;;;;;;4978605;28;20670;-79
2021/05/19 07:38:05;;;;;;;2.80;1.07;;;32.10;72.60;;;;;;4973537;28;20971;-80
2021/05/19 07:40:30;;;;;;;2.53;1.00;;;32.50;71.50;;;;;;4954891;29;20582;-80
2021/05/19 07:42:57;;;;;;;3.00;0.80;;;32.80;69.90;;;;;;4955256;29;20577;-81
2021/05/19 07:45:23;;;;;;;2.40;0.97;;;33.00;68.60;;;;;;4937606;29;20233;-81
2021/05/19 07:47:49;;;;;;;3.27;0.90;;;33.10;66.90;;;;;;4958586;28;20672;-81
2021/05/19 07:50:15;;;;;;;1.70;0.87;;;33.00;64.10;;;;;;4978194;28;20662;-81
2021/05/19 07:52:40;;;;;;;2.73;0.90;;;32.70;62.10;;;;;;4997651;28;20174;-83
2021/05/19 07:55:13;;;;;;;3.00;1.03;;;32.60;62.00;;;;;;4978482;28;20538;-83
2021/05/19 07:57:43;;;;;;;2.83;1.20;;;32.20;60.10;;;;;;4962111;28;20249;-80
2021/05/19 08:00:28;;;;;;;3.93;1.00;;;31.80;59.60;;;;;;4975570;28;21529;-82
2021/05/19 08:02:54;;;;;;;3.40;1.00;;;31.30;59.00;;;;;;4999121;28;20668;-82
2021/05/19 08:05:20;;;;;;;2.50;0.70;;;30.60;58.60;;;;;;4963677;28;20587;-80
2021/05/19 08:07:45;;;;;;;5.20;1.00;;;30.00;58.20;;;;;;4956174;28;20192;-78
2021/05/19 08:10:12;;;;;;;4.57;1.10;;;29.30;57.60;;;;;;4956762;28;20186;-80
2021/05/19 08:12:38;;;;;;;3.17;1.00;;;28.60;57.60;;;;;;4974990;28;20588;-79
2021/05/19 08:15:04;;;;;;;2.13;1.13;;;28.00;57.90;;;;;;4957455;28;20669;-80
2021/05/19 08:17:30;;;;;;;1.77;1.00;;;27.30;57.90;;;;;;4938934;28;20260;-78
2021/05/19 08:19:56;;;;;;;2.03;0.70;;;26.70;58.40;;;;;;4973378;28;20769;-81
2021/05/19 08:22:21;;;;;;;4.80;0.80;;;26.20;58.60;;;;;;4955889;28;20872;-80
2021/05/19 08:24:48;;;;;;;3.80;1.10;;;25.50;58.80;;;;;;4972975;28;20191;-80
2021/05/19 08:27:14;;;;;;;2.23;0.87;;;25.00;59.20;;;;;;4955603;28;20265;-80
2021/05/19 08:29:40;;;;;;;4.97;1.10;;;24.50;59.50;;;;;;4953020;28;20577;-82
2021/05/19 08:32:07;;;;;;;2.30;0.80;;;24.10;60.00;;;;;;4976968;28;20578;-78
2021/05/19 08:34:33;;;;;;;1.63;0.80;;;23.70;60.30;;;;;;4993519;28;20632;-77
2021/05/19 08:36:59;;;;;;;5.57;1.27;;;23.40;61.50;;;;;;4992580;28;20605;-79
2021/05/19 08:39:25;;;;;;;2.37;1.10;;;23.20;62.00;;;;;;4946857;29;20627;-78
2021/05/19 08:41:51;;;;;;;1.90;0.70;;;23.00;62.50;;;;;;4954829;29;20176;-78
2021/05/19 08:44:19;;;;;;;1.93;0.63;;;22.70;62.50;;;;;;4954460;29;20180;-80
2021/05/19 08:46:53;;;;;;;4.00;0.90;;;22.50;62.50;;;;;;4956282;28;20675;-79
2021/05/19 08:49:18;;;;;;;3.87;0.80;;;22.20;62.40;;;;;;4961833;29;20679;-80
2021/05/19 08:51:44;;;;;;;3.53;0.80;;;21.90;62.80;;;;;;4961152;29;20595;-80
2021/05/19 08:54:12;;;;;;;3.57;0.90;;;21.70;63.40;;;;;;4963373;29;20179;-79
2021/05/19 08:56:42;;;;;;;2.90;0.80;;;21.50;64.00;;;;;;4963974;28;20571;-80
2021/05/19 08:59:08;;;;;;;6.33;0.80;;;21.40;64.60;;;;;;4961731;28;20631;-80
2021/05/19 09:01:46;;;;;;;2.40;0.77;;;21.30;65.30;;;;;;4959759;29;20630;-79
2021/05/19 09:04:16;;;;;;;2.73;0.90;;;21.20;65.60;;;;;;4960048;28;20606;-78
2021/05/19 09:06:43;;;;;;;4.17;0.80;;;21.10;66.00;;;;;;4957853;28;20949;-77
2021/05/19 09:09:35;;;;;;;1.60;0.60;;;21.10;66.20;;;;;;4959445;29;21120;-78
2021/05/19 09:12:07;;;;;;;3.10;0.70;;;20.90;66.30;;;;;;4963431;28;20595;-81
2021/05/19 09:14:37;;;;;;;2.30;0.70;;;20.90;66.70;;;;;;4950354;29;20679;-80
2021/05/19 09:17:17;;;;;;;2.97;1.10;;;20.80;67.10;;;;;;4971772;28;20635;-79
2021/05/19 09:19:43;;;;;;;5.00;0.70;;;20.80;67.60;;;;;;4972851;29;20626;-80
2021/05/19 09:22:20;;;;;;;1.87;0.70;;;20.90;68.30;;;;;;4955111;29;20572;-79
2021/05/19 09:24:48;;;;;;;6.33;0.73;;;21.00;68.70;;;;;;4972377;29;20564;-80
2021/05/19 09:27:14;;;;;;;2.70;0.80;;;21.20;69.60;;;;;;4968975;28;20691;-80
2021/05/19 09:29:47;;;;;;;3.87;1.67;;;21.50;70.30;;;;;;4953489;29;20582;-80
2021/05/19 09:32:15;;;;;;;2.47;1.00;;;21.80;70.30;;;;;;4972719;29;20582;-80
2021/05/19 09:34:46;;;;;;;2.47;0.80;;;22.20;71.40;;;;;;4970886;29;20645;-79
2021/05/19 09:37:14;;;;;;;2.10;0.80;;;22.80;72.50;;;;;;4962726;28;20624;-80
2021/05/19 09:40:02;;;;;;;2.40;0.63;;;23.60;73.40;;;;;;4996407;28;20657;-80
2021/05/19 09:42:57;;;;;;;2.00;0.80;;;24.30;72.70;;;;;;4986503;28;20562;-81
2021/05/19 09:45:33;;;;;;;1.80;0.60;;;25.30;72.80;;;;;;5005186;28;20562;-79
2021/05/19 09:48:00;;;;;;;1.77;0.60;;;26.50;73.10;;;;;;4980600;28;20728;-78
2021/05/19 09:50:41;;;;;;;1.90;0.60;;;27.60;73.60;;;;;;4981428;28;21136;-78
2021/05/19 09:53:08;;;;;;;1.80;0.60;;;28.50;70.10;;;;;;4984187;28;20593;-79
2021/05/19 09:55:35;;;;;;;3.27;0.97;;;29.40;69.60;;;;;;5003841;28;20601;-78
2021/05/19 09:58:01;;;;;;;2.43;0.53;;;29.80;65.70;;;;;;4981005;28;20693;-78
2021/05/19 10:00:29;;;;;;;2.90;0.70;;;30.10;63.60;;;;;;4997378;28;20716;-78
2021/05/19 10:02:55;;;;;;;3.63;0.97;;;30.30;62.30;;;;;;4995874;28;20653;-78
2021/05/19 10:05:26;;;;;;;2.17;0.70;;;30.50;60.60;;;;;;4998081;28;20589;-79
2021/05/19 10:07:55;;;;;;;3.10;0.87;;;30.80;60.50;;;;;;4978911;28;20610;-79
2021/05/19 10:10:26;;;;;;;1.87;0.60;;;31.10;60.40;;;;;;4995696;28;20622;-79
2021/05/19 10:12:53;;;;;;;1.50;0.60;;;31.50;59.40;;;;;;4982957;28;20991;-78
2021/05/19 10:15:28;;;;;;;2.33;1.03;;;32.00;60.50;;;;;;4998964;28;20571;-79
2021/05/19 10:18:14;;;;;;;1.73;0.63;;;32.60;59.10;;;;;;4999798;28;21212;-79
2021/05/19 10:20:43;;;;;;;2.60;0.70;;;32.80;58.20;;;;;;4998779;28;20581;-80
2021/05/19 10:23:11;;;;;;;1.40;0.50;;;33.10;56.90;;;;;;4981435;28;20597;-80
2021/05/19 10:25:39;;;;;;;2.50;0.60;;;33.30;56.00;;;;;;4998519;28;20977;-79
2021/05/19 10:28:16;;;;;;;1.70;0.70;;;33.30;55.00;;;;;;4980454;28;21161;-79
2021/05/19 10:30:52;;;;;;;5.83;0.80;;;33.20;53.40;;;;;;4985036;28;20571;-79
2021/05/19 10:33:30;;;;;;;2.07;0.70;;;32.80;52.50;;;;;;4981480;28;20566;-79
2021/05/19 10:35:56;;;;;;;1.47;0.80;;;32.20;51.10;;;;;;4996425;28;20569;-79
2021/05/19 10:38:43;;;;;;;3.23;0.80;;;31.70;51.10;;;;;;4977925;28;20611;-80
2021/05/19 10:41:08;;;;;;;3.00;0.80;;;31.20;51.20;;;;;;4962358;28;21053;-78
2021/05/19 10:43:52;;;;;;;2.73;0.93;;;31.10;51.90;;;;;;4967089;28;20579;-80
2021/05/19 10:46:46;;;;;;;1.80;0.70;;;30.90;51.30;;;;;;4976119;28;20548;-80
2021/05/19 10:49:13;;;;;;;1.40;0.60;;;30.60;51.40;;;;;;4942345;28;21185;-78
2021/05/19 10:51:53;;;;;;;2.07;0.60;;;30.50;52.60;;;;;;4959613;28;20583;-80
2021/05/19 10:57:32;;;;;;;1.80;0.90;;;30.60;53.20;;;;;;4975419;28;20591;-80
2021/05/19 11:00:13;;;;;;;3.20;0.80;;;30.90;52.70;;;;;;4977104;28;21015;-80
2021/05/19 11:03:00;;;;;;;2.77;0.97;;;31.10;52.00;;;;;;4975093;28;20576;-80
2021/05/19 11:05:34;;;;;;;2.10;0.70;;;31.40;50.50;;;;;;4958101;28;20571;-80
2021/05/19 11:08:15;;;;;;;2.33;0.93;;;31.40;51.10;;;;;;4979557;28;20629;-79
2021/05/19 11:10:49;;;;;;;2.07;0.70;;;31.40;51.50;;;;;;4957675;28;20993;-79
2021/05/19 11:13:23;;;;;;;2.00;0.70;;;31.40;50.50;;;;;;4957580;28;21018;-79
2021/05/19 11:19:20;;;;;;;3.67;1.00;;;30.90;49.40;;;;;;4948407;29;20606;-79
2021/05/19 11:21:22;;;;;;;3.23;2.33;;;30.30;49.00;;;;;;4932813;29;20994;-79
2021/05/19 11:24:12;;;;;;;3.50;1.30;;;29.40;49.20;;;;;;4939419;29;20579;-80
2021/05/19 11:26:42;;;;;;;2.93;1.00;;;28.60;49.80;;;;;;4956777;29;20579;-81
2021/05/19 11:29:11;;;;;;;1.90;1.00;;;27.80;49.90;;;;;;4956629;29;20576;-80
2021/05/19 11:31:47;;;;;;;2.90;0.80;;;27.30;51.10;;;;;;4938526;29;20592;-80
2021/05/19 11:34:19;;;;;;;2.40;0.60;;;27.00;51.40;;;;;;4955738;29;20614;-81
2021/05/19 11:36:50;;;;;;;3.93;0.90;;;26.70;51.80;;;;;;4979024;28;20690;-80
2021/05/19 11:39:37;;;;;;;4.97;1.00;;;26.40;52.20;;;;;;4980428;28;20715;-80
2021/05/19 11:42:15;;;;;;;2.07;0.70;;;26.30;52.10;;;;;;4974683;28;20571;-80
2021/05/19 11:44:48;;;;;;;3.10;0.90;;;26.20;51.80;;;;;;4977576;28;20575;-81
2021/05/19 11:47:14;;;;;;;2.47;0.80;;;26.00;52.10;;;;;;4973759;28;20669;-82
2021/05/19 11:49:40;;;;;;;2.17;0.67;;;26.00;53.20;;;;;;4958752;28;20607;-80
2021/05/19 11:52:06;;;;;;;2.43;0.70;;;26.10;53.70;;;;;;4973783;28;20214;-81
2021/05/19 11:54:42;;;;;;;3.13;0.70;;;26.20;53.80;;;;;;4957135;28;20571;-80
2021/05/19 11:57:10;;;;;;;1.97;0.63;;;26.10;53.00;;;;;;4972623;28;20694;-80
2021/05/19 11:59:39;;;;;;;2.33;0.50;;;26.00;52.60;;;;;;4956419;28;20669;-76
2021/05/19 12:02:13;;;;;;;2.50;0.70;;;25.80;52.30;;;;;;4973254;28;21143;-77
2021/05/19 12:04:41;;;;;;;2.97;0.60;;;25.70;52.60;;;;;;4974777;28;20567;-78
2021/05/19 12:07:08;;;;;;;2.80;0.80;;;25.60;53.30;;;;;;4974290;28;20598;-79
2021/05/19 12:09:41;;;;;;;1.50;0.60;;;25.60;53.60;;;;;;4941399;28;20579;-78
2021/05/19 12:12:15;;;;;;;2.00;0.60;;;25.70;53.90;;;;;;4956698;28;20585;-79
2021/05/19 12:14:55;;;;;;;1.50;0.50;;;25.70;53.80;;;;;;4973169;28;20574;-80
2021/05/19 12:17:24;;;;;;;1.10;0.50;;;25.70;53.50;;;;;;4974232;28;20613;-80
2021/05/19 12:19:50;;;;;;;1.60;0.47;;;25.80;53.70;;;;;;4973383;28;20977;-80
2021/05/19 12:22:20;;;;;;;2.10;0.60;;;25.90;53.90;;;;;;4977700;28;20650;-80
2021/05/19 12:24:46;;;;;;;1.10;0.50;;;26.00;53.70;;;;;;4973910;28;20935;-80
2021/05/19 12:27:19;;;;;;;1.17;0.50;;;26.10;53.80;;;;;;4959191;28;20599;-80
2021/05/19 12:29:51;;;;;;;1.13;0.50;;;26.10;53.10;;;;;;4976790;28;20239;-79
2021/05/19 12:32:26;;;;;;;2.13;0.53;;;26.20;53.30;;;;;;4973923;28;20623;-80
2021/05/19 12:35:39;;;;;;;1.37;0.40;;;26.10;52.90;;;;;;4955926;28;20581;-79
2021/05/19 12:38:08;;;;;;;1.00;0.40;;;26.10;52.70;;;;;;4972616;28;20607;-80
2021/05/19 12:40:36;;;;;;;1.20;0.60;;;26.00;52.30;;;;;;4956087;28;20627;-80
2021/05/19 12:43:10;;;;;;;1.40;0.60;;;25.80;52.00;;;;;;4958886;28;20571;-80
2021/05/19 12:45:44;;;;;;;1.77;0.80;;;25.40;51.90;;;;;;4974492;28;21149;-79
2021/05/19 12:48:13;;;;;;;1.50;0.70;;;25.00;51.80;;;;;;4954795;28;20713;-81
2021/05/19 12:50:43;;;;;;;1.77;0.80;;;24.60;51.80;;;;;;4955241;28;21247;-81
2021/05/19 12:53:26;;;;;;;4.03;1.27;;;24.20;51.50;;;;;;4955426;28;20638;-81
2021/05/19 12:56:11;;;;;;;2.83;0.87;;;23.70;51.10;;;;;;4956644;28;20575;-79
2021/05/19 12:59:09;;;;;;;1.50;0.70;;;23.30;51.40;;;;;;4944499;28;21449;-81
2021/05/19 13:01:47;;;;;;;1.77;0.67;;;22.80;52.00;;;;;;4904687;28;20583;-82
2021/05/19 13:04:14;;;;;;;2.17;1.07;;;22.40;51.80;;;;;;4973944;28;20598;-82